sensor_id;sensor_type;location;lat;lon;timestamp;P1;durP1;ratioP1;P2;durP2;ratioP2
10132;SDS011;5106;50.926;7.080;2022-08-25T00:00:16;2.72;;;2.22;;
10132;SDS011;5106;50.926;7.080;2022-08-25T00:02:44;4.70;;;2.30;;
10132;SDS011;5106;50.926;7.080;2022-08-25T00:05:10;2.33;;;2.10;;
10132;SDS011;5106;50.926;7.080;2022-08-25T00:07:36;5.15;;;2.40;;
10132;SDS011;5106;50.926;7.080;2022-08-25T00:10:02;5.57;;;2.50;;
10132;SDS011;5106;50.926;7.080;2022-08-25T00:12:29;2.60;;;2.20;;
10132;SDS011;5106;50.926;7.080;2022-08-25T00:14:54;2.63;;;2.20;;
10132;SDS011;5106;50.926;7.080;2022-08-25T00:17:20;5.75;;;2.60;;
10132;SDS011;5106;50.926;7.080;2022-08-25T00:19:45;2.88;;;2.20;;
10132;SDS011;5106;50.926;7.080;2022-08-25T00:22:11;3.25;;;2.30;;
10132;SDS011;5106;50.926;7.080;2022-08-25T00:24:37;2.42;;;2.20;;
10132;SDS011;5106;50.926;7.080;2022-08-25T00:27:02;4.75;;;2.58;;
10132;SDS011;5106;50.926;7.080;2022-08-25T00:29:29;4.05;;;2.20;;
10132;SDS011;5106;50.926;7.080;2022-08-25T00:31:55;2.47;;;2.20;;
10132;SDS011;5106;50.926;7.080;2022-08-25T00:34:23;4.82;;;2.60;;
10132;SDS011;5106;50.926;7.080;2022-08-25T00:36:52;2.63;;;2.42;;
10132;SDS011;5106;50.926;7.080;2022-08-25T00:39:18;3.53;;;2.20;;
10132;SDS011;5106;50.926;7.080;2022-08-25T00:41:46;2.92;;;2.30;;
10132;SDS011;5106;50.926;7.080;2022-08-25T00:44:13;3.25;;;2.75;;
10132;SDS011;5106;50.926;7.080;2022-08-25T00:46:43;3.22;;;2.40;;
10132;SDS011;5106;50.926;7.080;2022-08-25T00:49:25;4.30;;;2.40;;
10132;SDS011;5106;50.926;7.080;2022-08-25T00:57:14;4.35;;;2.40;;
10132;SDS011;5106;50.926;7.080;2022-08-25T00:59:42;2.92;;;2.40;;
10132;SDS011;5106;50.926;7.080;2022-08-25T01:02:08;3.65;;;2.50;;
10132;SDS011;5106;50.926;7.080;2022-08-25T01:04:35;3.67;;;2.55;;
10132;SDS011;5106;50.926;7.080;2022-08-25T01:07:02;3.03;;;2.33;;
10132;SDS011;5106;50.926;7.080;2022-08-25T01:09:29;3.83;;;2.45;;
10132;SDS011;5106;50.926;7.080;2022-08-25T01:11:56;2.83;;;2.40;;
10132;SDS011;5106;50.926;7.080;2022-08-25T01:14:22;2.80;;;2.10;;
10132;SDS011;5106;50.926;7.080;2022-08-25T01:16:50;2.53;;;2.20;;
10132;SDS011;5106;50.926;7.080;2022-08-25T01:19:16;5.20;;;2.65;;
10132;SDS011;5106;50.926;7.080;2022-08-25T01:21:47;2.33;;;2.13;;
10132;SDS011;5106;50.926;7.080;2022-08-25T01:24:27;2.95;;;2.30;;
10132;SDS011;5106;50.926;7.080;2022-08-25T01:27:00;3.10;;;2.45;;
10132;SDS011;5106;50.926;7.080;2022-08-25T01:29:26;2.58;;;2.38;;
10132;SDS011;5106;50.926;7.080;2022-08-25T01:32:00;3.00;;;2.38;;
10132;SDS011;5106;50.926;7.080;2022-08-25T01:34:29;3.15;;;2.67;;
10132;SDS011;5106;50.926;7.080;2022-08-25T01:36:58;4.05;;;2.30;;
10132;SDS011;5106;50.926;7.080;2022-08-25T01:39:25;3.10;;;2.58;;
10132;SDS011;5106;50.926;7.080;2022-08-25T01:44:34;2.63;;;2.42;;
10132;SDS011;5106;50.926;7.080;2022-08-25T01:47:08;3.10;;;2.58;;
10132;SDS011;5106;50.926;7.080;2022-08-25T01:49:34;3.08;;;2.40;;
10132;SDS011;5106;50.926;7.080;2022-08-25T01:52:05;2.88;;;2.53;;
10132;SDS011;5106;50.926;7.080;2022-08-25T01:54:47;2.63;;;2.42;;
10132;SDS011;5106;50.926;7.080;2022-08-25T01:57:13;2.72;;;2.40;;
10132;SDS011;5106;50.926;7.080;2022-08-25T01:59:38;4.30;;;2.67;;
10132;SDS011;5106;50.926;7.080;2022-08-25T02:02:05;3.05;;;2.60;;
10132;SDS011;5106;50.926;7.080;2022-08-25T02:04:30;2.72;;;2.50;;
10132;SDS011;5106;50.926;7.080;2022-08-25T02:06:57;3.80;;;2.50;;
10132;SDS011;5106;50.926;7.080;2022-08-25T02:09:29;2.78;;;2.50;;
10132;SDS011;5106;50.926;7.080;2022-08-25T02:11:54;3.38;;;2.97;;
10132;SDS011;5106;50.926;7.080;2022-08-25T02:14:20;2.83;;;2.55;;
10132;SDS011;5106;50.926;7.080;2022-08-25T02:16:47;3.10;;;2.80;;
10132;SDS011;5106;50.926;7.080;2022-08-25T02:19:16;3.50;;;2.65;;
10132;SDS011;5106;50.926;7.080;2022-08-25T02:21:42;4.72;;;2.50;;
10132;SDS011;5106;50.926;7.080;2022-08-25T02:24:08;2.58;;;2.38;;
10132;SDS011;5106;50.926;7.080;2022-08-25T02:26:35;4.03;;;2.70;;
10132;SDS011;5106;50.926;7.080;2022-08-25T02:29:01;3.30;;;2.40;;
10132;SDS011;5106;50.926;7.080;2022-08-25T02:31:27;2.70;;;2.40;;
10132;SDS011;5106;50.926;7.080;2022-08-25T02:33:53;5.03;;;2.78;;
10132;SDS011;5106;50.926;7.080;2022-08-25T02:36:19;3.63;;;2.50;;
10132;SDS011;5106;50.926;7.080;2022-08-25T02:38:45;2.90;;;2.60;;
10132;SDS011;5106;50.926;7.080;2022-08-25T02:41:12;4.45;;;2.67;;
10132;SDS011;5106;50.926;7.080;2022-08-25T02:43:40;3.88;;;2.70;;
10132;SDS011;5106;50.926;7.080;2022-08-25T02:46:07;3.33;;;3.00;;
10132;SDS011;5106;50.926;7.080;2022-08-25T02:48:34;3.20;;;2.75;;
10132;SDS011;5106;50.926;7.080;2022-08-25T02:51:00;3.00;;;2.70;;
10132;SDS011;5106;50.926;7.080;2022-08-25T02:53:26;2.80;;;2.50;;
10132;SDS011;5106;50.926;7.080;2022-08-25T02:55:53;5.40;;;2.63;;
10132;SDS011;5106;50.926;7.080;2022-08-25T02:58:20;2.50;;;2.30;;
10132;SDS011;5106;50.926;7.080;2022-08-25T03:00:46;2.90;;;2.70;;
10132;SDS011;5106;50.926;7.080;2022-08-25T03:03:13;4.07;;;3.10;;
10132;SDS011;5106;50.926;7.080;2022-08-25T03:05:39;3.45;;;2.80;;
10132;SDS011;5106;50.926;7.080;2022-08-25T03:08:05;3.10;;;2.80;;
10132;SDS011;5106;50.926;7.080;2022-08-25T03:10:31;3.00;;;2.60;;
10132;SDS011;5106;50.926;7.080;2022-08-25T03:12:57;3.20;;;2.50;;
10132;SDS011;5106;50.926;7.080;2022-08-25T03:15:23;3.30;;;3.00;;
10132;SDS011;5106;50.926;7.080;2022-08-25T03:17:53;2.90;;;2.70;;
10132;SDS011;5106;50.926;7.080;2022-08-25T03:20:20;4.18;;;2.83;;
10132;SDS011;5106;50.926;7.080;2022-08-25T03:22:47;3.15;;;2.85;;
10132;SDS011;5106;50.926;7.080;2022-08-25T03:25:13;3.83;;;3.10;;
10132;SDS011;5106;50.926;7.080;2022-08-25T03:27:58;3.22;;;2.58;;
10132;SDS011;5106;50.926;7.080;2022-08-25T03:30:24;4.95;;;2.90;;
10132;SDS011;5106;50.926;7.080;2022-08-25T03:32:51;3.22;;;2.92;;
10132;SDS011;5106;50.926;7.080;2022-08-25T03:35:18;3.95;;;2.95;;
10132;SDS011;5106;50.926;7.080;2022-08-25T03:37:43;3.20;;;2.85;;
10132;SDS011;5106;50.926;7.080;2022-08-25T03:40:10;3.13;;;2.80;;
10132;SDS011;5106;50.926;7.080;2022-08-25T03:42:41;3.40;;;2.70;;
10132;SDS011;5106;50.926;7.080;2022-08-25T03:45:08;3.05;;;2.75;;
10132;SDS011;5106;50.926;7.080;2022-08-25T03:47:36;2.70;;;2.50;;
10132;SDS011;5106;50.926;7.080;2022-08-25T03:50:04;3.13;;;2.80;;
10132;SDS011;5106;50.926;7.080;2022-08-25T03:52:32;3.72;;;2.90;;
10132;SDS011;5106;50.926;7.080;2022-08-25T03:54:58;5.20;;;3.00;;
10132;SDS011;5106;50.926;7.080;2022-08-25T03:57:24;4.03;;;3.00;;
10132;SDS011;5106;50.926;7.080;2022-08-25T03:59:50;2.92;;;2.63;;
10132;SDS011;5106;50.926;7.080;2022-08-25T04:02:16;3.90;;;2.80;;
10132;SDS011;5106;50.926;7.080;2022-08-25T04:04:42;3.47;;;2.97;;
10132;SDS011;5106;50.926;7.080;2022-08-25T04:07:08;3.13;;;2.83;;
10132;SDS011;5106;50.926;7.080;2022-08-25T04:09:35;3.38;;;3.08;;
10132;SDS011;5106;50.926;7.080;2022-08-25T04:12:01;2.97;;;2.72;;
10132;SDS011;5106;50.926;7.080;2022-08-25T04:14:26;4.25;;;3.10;;
10132;SDS011;5106;50.926;7.080;2022-08-25T04:16:52;6.03;;;3.00;;
10132;SDS011;5106;50.926;7.080;2022-08-25T04:19:18;3.83;;;3.07;;
10132;SDS011;5106;50.926;7.080;2022-08-25T04:21:44;3.15;;;2.85;;
10132;SDS011;5106;50.926;7.080;2022-08-25T04:24:10;4.10;;;2.88;;
10132;SDS011;5106;50.926;7.080;2022-08-25T04:26:41;3.70;;;3.33;;
10132;SDS011;5106;50.926;7.080;2022-08-25T04:29:10;4.13;;;3.15;;
10132;SDS011;5106;50.926;7.080;2022-08-25T04:31:38;3.72;;;3.33;;
10132;SDS011;5106;50.926;7.080;2022-08-25T04:34:05;4.57;;;3.13;;
10132;SDS011;5106;50.926;7.080;2022-08-25T04:36:31;2.83;;;2.63;;
10132;SDS011;5106;50.926;7.080;2022-08-25T04:38:59;4.70;;;3.72;;
10132;SDS011;5106;50.926;7.080;2022-08-25T04:41:25;5.50;;;3.17;;
10132;SDS011;5106;50.926;7.080;2022-08-25T04:43:52;3.88;;;3.05;;
10132;SDS011;5106;50.926;7.080;2022-08-25T04:46:22;3.78;;;3.47;;
10132;SDS011;5106;50.926;7.080;2022-08-25T04:48:50;3.22;;;2.92;;
10132;SDS011;5106;50.926;7.080;2022-08-25T04:51:18;3.40;;;3.10;;
10132;SDS011;5106;50.926;7.080;2022-08-25T04:53:47;4.38;;;3.50;;
10132;SDS011;5106;50.926;7.080;2022-08-25T04:56:14;4.93;;;3.15;;
10132;SDS011;5106;50.926;7.080;2022-08-25T04:58:42;5.43;;;3.53;;
10132;SDS011;5106;50.926;7.080;2022-08-25T05:01:10;3.50;;;3.20;;
10132;SDS011;5106;50.926;7.080;2022-08-25T05:03:47;4.53;;;3.50;;
10132;SDS011;5106;50.926;7.080;2022-08-25T05:06:17;3.97;;;3.58;;
10132;SDS011;5106;50.926;7.080;2022-08-25T05:08:43;4.55;;;3.33;;
10132;SDS011;5106;50.926;7.080;2022-08-25T05:11:09;3.90;;;3.55;;
10132;SDS011;5106;50.926;7.080;2022-08-25T05:13:40;4.88;;;3.17;;
10132;SDS011;5106;50.926;7.080;2022-08-25T05:16:06;4.07;;;2.92;;
10132;SDS011;5106;50.926;7.080;2022-08-25T05:18:32;4.45;;;3.50;;
10132;SDS011;5106;50.926;7.080;2022-08-25T05:21:03;5.00;;;3.30;;
10132;SDS011;5106;50.926;7.080;2022-08-25T05:23:35;6.93;;;3.47;;
10132;SDS011;5106;50.926;7.080;2022-08-25T05:26:19;5.40;;;3.63;;
10132;SDS011;5106;50.926;7.080;2022-08-25T05:28:47;7.25;;;3.60;;
10132;SDS011;5106;50.926;7.080;2022-08-25T05:31:14;6.78;;;4.00;;
10132;SDS011;5106;50.926;7.080;2022-08-25T05:33:40;9.50;;;3.92;;
10132;SDS011;5106;50.926;7.080;2022-08-25T05:36:07;4.15;;;3.60;;
10132;SDS011;5106;50.926;7.080;2022-08-25T05:38:34;5.18;;;3.35;;
10132;SDS011;5106;50.926;7.080;2022-08-25T05:41:01;5.45;;;3.90;;
10132;SDS011;5106;50.926;7.080;2022-08-25T05:43:29;5.88;;;3.30;;
10132;SDS011;5106;50.926;7.080;2022-08-25T05:45:56;5.28;;;3.50;;
10132;SDS011;5106;50.926;7.080;2022-08-25T05:48:23;4.30;;;3.67;;
10132;SDS011;5106;50.926;7.080;2022-08-25T05:50:51;4.35;;;3.58;;
10132;SDS011;5106;50.926;7.080;2022-08-25T05:53:18;5.80;;;3.60;;
10132;SDS011;5106;50.926;7.080;2022-08-25T05:55:44;4.07;;;3.47;;
10132;SDS011;5106;50.926;7.080;2022-08-25T05:58:10;6.22;;;3.45;;
10132;SDS011;5106;50.926;7.080;2022-08-25T06:00:37;4.15;;;3.70;;
10132;SDS011;5106;50.926;7.080;2022-08-25T06:03:03;4.10;;;3.60;;
10132;SDS011;5106;50.926;7.080;2022-08-25T06:05:29;6.40;;;3.75;;
10132;SDS011;5106;50.926;7.080;2022-08-25T06:07:56;7.38;;;3.50;;
10132;SDS011;5106;50.926;7.080;2022-08-25T06:10:23;8.15;;;3.72;;
10132;SDS011;5106;50.926;7.080;2022-08-25T06:12:49;8.20;;;3.65;;
10132;SDS011;5106;50.926;7.080;2022-08-25T06:15:16;5.22;;;3.60;;
10132;SDS011;5106;50.926;7.080;2022-08-25T06:17:43;5.45;;;3.53;;
10132;SDS011;5106;50.926;7.080;2022-08-25T06:20:11;4.32;;;3.50;;
10132;SDS011;5106;50.926;7.080;2022-08-25T06:22:38;4.32;;;3.28;;
10132;SDS011;5106;50.926;7.080;2022-08-25T06:25:05;6.82;;;4.10;;
10132;SDS011;5106;50.926;7.080;2022-08-25T06:27:32;5.18;;;3.42;;
10132;SDS011;5106;50.926;7.080;2022-08-25T06:29:58;4.72;;;3.70;;
10132;SDS011;5106;50.926;7.080;2022-08-25T06:32:29;5.32;;;3.97;;
10132;SDS011;5106;50.926;7.080;2022-08-25T06:34:56;4.18;;;3.67;;
10132;SDS011;5106;50.926;7.080;2022-08-25T06:37:22;4.88;;;3.80;;
10132;SDS011;5106;50.926;7.080;2022-08-25T06:39:49;3.97;;;3.58;;
10132;SDS011;5106;50.926;7.080;2022-08-25T06:42:15;5.18;;;4.10;;
10132;SDS011;5106;50.926;7.080;2022-08-25T06:44:40;7.65;;;4.30;;
10132;SDS011;5106;50.926;7.080;2022-08-25T06:47:06;5.07;;;4.35;;
10132;SDS011;5106;50.926;7.080;2022-08-25T06:49:32;6.82;;;4.40;;
10132;SDS011;5106;50.926;7.080;2022-08-25T06:51:57;5.43;;;3.88;;
10132;SDS011;5106;50.926;7.080;2022-08-25T06:54:23;4.80;;;3.80;;
10132;SDS011;5106;50.926;7.080;2022-08-25T06:56:49;4.97;;;3.80;;
10132;SDS011;5106;50.926;7.080;2022-08-25T06:59:15;6.82;;;3.78;;
10132;SDS011;5106;50.926;7.080;2022-08-25T07:01:42;6.20;;;4.20;;
10132;SDS011;5106;50.926;7.080;2022-08-25T07:04:07;4.53;;;3.80;;
10132;SDS011;5106;50.926;7.080;2022-08-25T07:06:33;5.57;;;4.57;;
10132;SDS011;5106;50.926;7.080;2022-08-25T07:08:59;7.20;;;4.55;;
10132;SDS011;5106;50.926;7.080;2022-08-25T07:11:26;4.45;;;4.05;;
10132;SDS011;5106;50.926;7.080;2022-08-25T07:13:52;5.75;;;4.40;;
10132;SDS011;5106;50.926;7.080;2022-08-25T07:16:19;5.05;;;4.35;;
10132;SDS011;5106;50.926;7.080;2022-08-25T07:18:45;5.22;;;4.30;;
10132;SDS011;5106;50.926;7.080;2022-08-25T07:21:12;5.53;;;3.97;;
10132;SDS011;5106;50.926;7.080;2022-08-25T07:23:39;4.38;;;3.70;;
10132;SDS011;5106;50.926;7.080;2022-08-25T07:26:07;6.95;;;4.57;;
10132;SDS011;5106;50.926;7.080;2022-08-25T07:31:35;6.07;;;4.03;;
10132;SDS011;5106;50.926;7.080;2022-08-25T07:34:01;6.25;;;3.92;;
10132;SDS011;5106;50.926;7.080;2022-08-25T07:36:45;4.72;;;3.97;;
10132;SDS011;5106;50.926;7.080;2022-08-25T07:39:10;6.10;;;3.80;;
10132;SDS011;5106;50.926;7.080;2022-08-25T07:41:37;4.60;;;3.97;;
10132;SDS011;5106;50.926;7.080;2022-08-25T07:44:05;4.60;;;4.20;;
10132;SDS011;5106;50.926;7.080;2022-08-25T07:46:32;4.88;;;4.38;;
10132;SDS011;5106;50.926;7.080;2022-08-25T07:48:58;4.45;;;4.05;;
10132;SDS011;5106;50.926;7.080;2022-08-25T07:51:24;7.80;;;4.65;;
10132;SDS011;5106;50.926;7.080;2022-08-25T07:53:50;6.82;;;4.43;;
10132;SDS011;5106;50.926;7.080;2022-08-25T07:56:16;5.15;;;3.97;;
10132;SDS011;5106;50.926;7.080;2022-08-25T07:58:42;4.28;;;3.88;;
10132;SDS011;5106;50.926;7.080;2022-08-25T08:01:18;4.53;;;3.92;;
10132;SDS011;5106;50.926;7.080;2022-08-25T08:03:46;5.80;;;4.03;;
10132;SDS011;5106;50.926;7.080;2022-08-25T08:06:13;4.47;;;4.05;;
10132;SDS011;5106;50.926;7.080;2022-08-25T08:08:41;5.75;;;4.38;;
10132;SDS011;5106;50.926;7.080;2022-08-25T08:11:19;6.35;;;4.47;;
10132;SDS011;5106;50.926;7.080;2022-08-25T08:13:49;5.45;;;4.38;;
10132;SDS011;5106;50.926;7.080;2022-08-25T08:16:16;7.75;;;4.65;;
10132;SDS011;5106;50.926;7.080;2022-08-25T08:18:43;5.03;;;4.30;;
10132;SDS011;5106;50.926;7.080;2022-08-25T08:21:13;5.07;;;3.70;;
10132;SDS011;5106;50.926;7.080;2022-08-25T08:23:50;4.25;;;3.83;;
10132;SDS011;5106;50.926;7.080;2022-08-25T08:26:16;5.88;;;3.60;;
10132;SDS011;5106;50.926;7.080;2022-08-25T08:28:42;8.30;;;4.00;;
10132;SDS011;5106;50.926;7.080;2022-08-25T08:31:08;4.22;;;3.80;;
10132;SDS011;5106;50.926;7.080;2022-08-25T08:33:34;5.78;;;4.32;;
10132;SDS011;5106;50.926;7.080;2022-08-25T08:38:27;4.43;;;3.72;;
10132;SDS011;5106;50.926;7.080;2022-08-25T08:44:00;4.18;;;3.67;;
10132;SDS011;5106;50.926;7.080;2022-08-25T08:46:56;5.68;;;3.88;;
10132;SDS011;5106;50.926;7.080;2022-08-25T08:49:26;6.63;;;3.60;;
10132;SDS011;5106;50.926;7.080;2022-08-25T08:52:00;3.83;;;3.50;;
10132;SDS011;5106;50.926;7.080;2022-08-25T08:54:27;6.38;;;4.05;;
10132;SDS011;5106;50.926;7.080;2022-08-25T08:57:06;11.80;;;3.90;;
10132;SDS011;5106;50.926;7.080;2022-08-25T08:59:46;3.95;;;3.60;;
10132;SDS011;5106;50.926;7.080;2022-08-25T09:02:18;4.82;;;3.40;;
10132;SDS011;5106;50.926;7.080;2022-08-25T09:05:12;5.13;;;3.58;;
10132;SDS011;5106;50.926;7.080;2022-08-25T09:07:43;6.45;;;4.20;;
10132;SDS011;5106;50.926;7.080;2022-08-25T09:10:12;6.57;;;3.63;;
10132;SDS011;5106;50.926;7.080;2022-08-25T09:12:44;8.77;;;4.40;;
10132;SDS011;5106;50.926;7.080;2022-08-25T09:21:42;18.08;;;5.30;;
10132;SDS011;5106;50.926;7.080;2022-08-25T09:30:14;4.40;;;3.47;;
10132;SDS011;5106;50.926;7.080;2022-08-25T09:32:42;14.38;;;4.20;;
10132;SDS011;5106;50.926;7.080;2022-08-25T09:35:17;4.50;;;3.35;;
10132;SDS011;5106;50.926;7.080;2022-08-25T09:37:55;4.93;;;3.85;;
10132;SDS011;5106;50.926;7.080;2022-08-25T09:40:21;4.55;;;4.07;;
10132;SDS011;5106;50.926;7.080;2022-08-25T09:42:49;4.20;;;3.80;;
10132;SDS011;5106;50.926;7.080;2022-08-25T09:45:29;5.03;;;3.80;;
10132;SDS011;5106;50.926;7.080;2022-08-25T09:50:51;4.78;;;4.30;;
10132;SDS011;5106;50.926;7.080;2022-08-25T09:53:22;5.30;;;3.83;;
10132;SDS011;5106;50.926;7.080;2022-08-25T09:55:51;4.25;;;3.85;;
10132;SDS011;5106;50.926;7.080;2022-08-25T09:58:23;4.43;;;3.22;;
10132;SDS011;5106;50.926;7.080;2022-08-25T10:01:31;4.40;;;3.60;;
10132;SDS011;5106;50.926;7.080;2022-08-25T10:04:02;4.90;;;3.97;;
10132;SDS011;5106;50.926;7.080;2022-08-25T10:06:29;3.63;;;3.33;;
10132;SDS011;5106;50.926;7.080;2022-08-25T10:09:03;3.97;;;3.55;;
10132;SDS011;5106;50.926;7.080;2022-08-25T10:11:35;4.15;;;3.78;;
10132;SDS011;5106;50.926;7.080;2022-08-25T10:14:06;3.90;;;3.60;;
10132;SDS011;5106;50.926;7.080;2022-08-25T10:16:40;6.68;;;3.55;;
10132;SDS011;5106;50.926;7.080;2022-08-25T10:19:10;4.43;;;4.03;;
10132;SDS011;5106;50.926;7.080;2022-08-25T10:21:37;4.07;;;3.67;;
10132;SDS011;5106;50.926;7.080;2022-08-25T10:24:04;4.10;;;3.50;;
10132;SDS011;5106;50.926;7.080;2022-08-25T10:45:33;6.53;;;3.47;;
10132;SDS011;5106;50.926;7.080;2022-08-25T10:48:11;4.50;;;3.25;;
10132;SDS011;5106;50.926;7.080;2022-08-25T10:53:16;6.25;;;3.60;;
10132;SDS011;5106;50.926;7.080;2022-08-25T10:56:15;4.50;;;3.38;;
10132;SDS011;5106;50.926;7.080;2022-08-25T10:58:57;5.35;;;4.18;;
10132;SDS011;5106;50.926;7.080;2022-08-25T11:04:09;4.65;;;4.00;;
10132;SDS011;5106;50.926;7.080;2022-08-25T11:09:49;4.38;;;3.67;;
10132;SDS011;5106;50.926;7.080;2022-08-25T11:12:39;4.53;;;3.72;;
10132;SDS011;5106;50.926;7.080;2022-08-25T11:15:19;5.20;;;3.60;;
10132;SDS011;5106;50.926;7.080;2022-08-25T11:18:09;4.97;;;3.83;;
10132;SDS011;5106;50.926;7.080;2022-08-25T11:20:42;4.95;;;3.75;;
10132;SDS011;5106;50.926;7.080;2022-08-25T11:23:14;4.13;;;3.72;;
10132;SDS011;5106;50.926;7.080;2022-08-25T11:25:46;4.35;;;3.75;;
10132;SDS011;5106;50.926;7.080;2022-08-25T11:28:19;5.38;;;3.70;;
10132;SDS011;5106;50.926;7.080;2022-08-25T11:30:58;4.03;;;3.60;;
10132;SDS011;5106;50.926;7.080;2022-08-25T11:33:26;5.28;;;3.35;;
10132;SDS011;5106;50.926;7.080;2022-08-25T11:35:56;3.80;;;3.05;;
10132;SDS011;5106;50.926;7.080;2022-08-25T11:50:54;3.95;;;3.45;;
10132;SDS011;5106;50.926;7.080;2022-08-25T11:52:50;3.47;;;3.17;;
10132;SDS011;5106;50.926;7.080;2022-08-25T11:58:19;4.60;;;3.90;;
10132;SDS011;5106;50.926;7.080;2022-08-25T12:01:07;4.05;;;3.65;;
10132;SDS011;5106;50.926;7.080;2022-08-25T12:16:43;4.50;;;4.10;;
10132;SDS011;5106;50.926;7.080;2022-08-25T12:27:08;6.57;;;3.80;;
10132;SDS011;5106;50.926;7.080;2022-08-25T12:44:33;4.10;;;3.40;;
10132;SDS011;5106;50.926;7.080;2022-08-25T12:49:38;4.22;;;3.85;;
10132;SDS011;5106;50.926;7.080;2022-08-25T12:57:37;3.90;;;3.50;;
10132;SDS011;5106;50.926;7.080;2022-08-25T13:00:24;4.40;;;3.80;;
10132;SDS011;5106;50.926;7.080;2022-08-25T13:15:46;9.60;;;4.20;;
10132;SDS011;5106;50.926;7.080;2022-08-25T13:18:26;4.78;;;3.60;;
10132;SDS011;5106;50.926;7.080;2022-08-25T13:21:17;3.88;;;3.20;;
10132;SDS011;5106;50.926;7.080;2022-08-25T13:23:53;4.07;;;3.40;;
10132;SDS011;5106;50.926;7.080;2022-08-25T13:28:52;4.53;;;3.65;;
10132;SDS011;5106;50.926;7.080;2022-08-25T13:31:25;4.07;;;3.50;;
10132;SDS011;5106;50.926;7.080;2022-08-25T13:34:06;5.72;;;3.35;;
10132;SDS011;5106;50.926;7.080;2022-08-25T13:36:44;4.28;;;3.53;;
10132;SDS011;5106;50.926;7.080;2022-08-25T13:39:29;4.05;;;3.63;;
10132;SDS011;5106;50.926;7.080;2022-08-25T13:41:58;4.43;;;3.53;;
10132;SDS011;5106;50.926;7.080;2022-08-25T13:44:25;4.03;;;3.50;;
10132;SDS011;5106;50.926;7.080;2022-08-25T13:49:41;4.15;;;3.33;;
10132;SDS011;5106;50.926;7.080;2022-08-25T13:52:17;4.07;;;3.67;;
10132;SDS011;5106;50.926;7.080;2022-08-25T13:54:49;7.72;;;3.60;;
10132;SDS011;5106;50.926;7.080;2022-08-25T13:57:23;4.60;;;3.63;;
10132;SDS011;5106;50.926;7.080;2022-08-25T13:59:55;5.90;;;3.83;;
10132;SDS011;5106;50.926;7.080;2022-08-25T14:05:14;4.10;;;3.30;;
10132;SDS011;5106;50.926;7.080;2022-08-25T14:07:53;4.90;;;3.05;;
10132;SDS011;5106;50.926;7.080;2022-08-25T14:10:31;3.33;;;3.03;;
10132;SDS011;5106;50.926;7.080;2022-08-25T14:13:10;13.32;;;3.42;;
10132;SDS011;5106;50.926;7.080;2022-08-25T14:15:36;5.38;;;3.20;;
10132;SDS011;5106;50.926;7.080;2022-08-25T14:20:41;7.72;;;3.15;;
10132;SDS011;5106;50.926;7.080;2022-08-25T14:23:10;3.40;;;3.10;;
10132;SDS011;5106;50.926;7.080;2022-08-25T14:25:39;3.50;;;3.00;;
10132;SDS011;5106;50.926;7.080;2022-08-25T14:28:07;3.53;;;3.10;;
10132;SDS011;5106;50.926;7.080;2022-08-25T14:30:36;3.40;;;3.10;;
10132;SDS011;5106;50.926;7.080;2022-08-25T14:33:05;3.50;;;3.10;;
10132;SDS011;5106;50.926;7.080;2022-08-25T14:35:31;3.10;;;2.90;;
10132;SDS011;5106;50.926;7.080;2022-08-25T14:37:57;3.45;;;3.15;;
10132;SDS011;5106;50.926;7.080;2022-08-25T14:40:22;3.15;;;2.85;;
10132;SDS011;5106;50.926;7.080;2022-08-25T14:42:48;3.42;;;2.67;;
10132;SDS011;5106;50.926;7.080;2022-08-25T14:45:15;3.35;;;3.05;;
10132;SDS011;5106;50.926;7.080;2022-08-25T14:47:41;3.10;;;2.80;;
10132;SDS011;5106;50.926;7.080;2022-08-25T14:50:10;3.53;;;3.20;;
10132;SDS011;5106;50.926;7.080;2022-08-25T14:52:39;4.30;;;3.03;;
10132;SDS011;5106;50.926;7.080;2022-08-25T14:55:06;3.33;;;3.03;;
10132;SDS011;5106;50.926;7.080;2022-08-25T14:57:32;3.35;;;3.05;;
10132;SDS011;5106;50.926;7.080;2022-08-25T14:59:59;4.75;;;3.13;;
10132;SDS011;5106;50.926;7.080;2022-08-25T15:02:25;3.33;;;3.05;;
10132;SDS011;5106;50.926;7.080;2022-08-25T15:04:56;3.28;;;2.90;;
10132;SDS011;5106;50.926;7.080;2022-08-25T15:07:24;3.50;;;3.05;;
10132;SDS011;5106;50.926;7.080;2022-08-25T15:10:09;3.00;;;2.80;;
10132;SDS011;5106;50.926;7.080;2022-08-25T15:12:35;2.85;;;2.60;;
10132;SDS011;5106;50.926;7.080;2022-08-25T15:15:01;2.90;;;2.70;;
10132;SDS011;5106;50.926;7.080;2022-08-25T15:17:27;4.32;;;2.88;;
10132;SDS011;5106;50.926;7.080;2022-08-25T15:19:53;2.72;;;2.53;;
10132;SDS011;5106;50.926;7.080;2022-08-25T15:22:19;2.80;;;2.60;;
10132;SDS011;5106;50.926;7.080;2022-08-25T15:24:45;2.88;;;2.60;;
10132;SDS011;5106;50.926;7.080;2022-08-25T15:27:11;2.83;;;2.63;;
10132;SDS011;5106;50.926;7.080;2022-08-25T15:29:39;3.10;;;2.70;;
10132;SDS011;5106;50.926;7.080;2022-08-25T15:32:05;2.83;;;2.63;;
10132;SDS011;5106;50.926;7.080;2022-08-25T15:34:32;3.97;;;2.90;;
10132;SDS011;5106;50.926;7.080;2022-08-25T15:36:59;3.13;;;2.83;;
10132;SDS011;5106;50.926;7.080;2022-08-25T15:39:35;4.30;;;2.63;;
10132;SDS011;5106;50.926;7.080;2022-08-25T15:42:01;2.90;;;2.70;;
10132;SDS011;5106;50.926;7.080;2022-08-25T15:44:27;3.10;;;2.80;;
10132;SDS011;5106;50.926;7.080;2022-08-25T15:46:53;4.10;;;2.40;;
10132;SDS011;5106;50.926;7.080;2022-08-25T15:49:19;2.90;;;2.60;;
10132;SDS011;5106;50.926;7.080;2022-08-25T15:51:45;3.85;;;2.88;;
10132;SDS011;5106;50.926;7.080;2022-08-25T15:54:10;3.00;;;2.80;;
10132;SDS011;5106;50.926;7.080;2022-08-25T15:56:38;2.70;;;2.50;;
10132;SDS011;5106;50.926;7.080;2022-08-25T15:59:04;3.17;;;2.80;;
10132;SDS011;5106;50.926;7.080;2022-08-25T16:01:30;2.78;;;2.55;;
10132;SDS011;5106;50.926;7.080;2022-08-25T16:03:55;2.65;;;2.45;;
10132;SDS011;5106;50.926;7.080;2022-08-25T16:06:21;3.70;;;2.65;;
10132;SDS011;5106;50.926;7.080;2022-08-25T16:08:49;2.72;;;2.53;;
10132;SDS011;5106;50.926;7.080;2022-08-25T16:11:16;3.03;;;2.70;;
10132;SDS011;5106;50.926;7.080;2022-08-25T16:13:48;3.25;;;2.50;;
10132;SDS011;5106;50.926;7.080;2022-08-25T16:16:15;3.05;;;2.75;;
10132;SDS011;5106;50.926;7.080;2022-08-25T16:18:41;3.42;;;2.60;;
10132;SDS011;5106;50.926;7.080;2022-08-25T16:21:09;3.38;;;2.70;;
10132;SDS011;5106;50.926;7.080;2022-08-25T16:23:36;3.90;;;2.58;;
10132;SDS011;5106;50.926;7.080;2022-08-25T16:26:02;3.08;;;2.38;;
10132;SDS011;5106;50.926;7.080;2022-08-25T16:28:29;2.75;;;2.45;;
10132;SDS011;5106;50.926;7.080;2022-08-25T16:30:55;2.78;;;2.50;;
10132;SDS011;5106;50.926;7.080;2022-08-25T16:33:20;2.97;;;2.58;;
10132;SDS011;5106;50.926;7.080;2022-08-25T16:35:46;3.97;;;2.60;;
10132;SDS011;5106;50.926;7.080;2022-08-25T16:38:12;2.60;;;2.40;;
10132;SDS011;5106;50.926;7.080;2022-08-25T16:40:40;4.50;;;2.80;;
10132;SDS011;5106;50.926;7.080;2022-08-25T16:43:07;3.95;;;2.90;;
10132;SDS011;5106;50.926;7.080;2022-08-25T16:45:34;5.63;;;2.72;;
10132;SDS011;5106;50.926;7.080;2022-08-25T16:48:00;3.00;;;2.70;;
10132;SDS011;5106;50.926;7.080;2022-08-25T16:50:26;3.38;;;2.90;;
10132;SDS011;5106;50.926;7.080;2022-08-25T16:52:54;4.05;;;3.00;;
10132;SDS011;5106;50.926;7.080;2022-08-25T16:56:00;3.95;;;2.80;;
10132;SDS011;5106;50.926;7.080;2022-08-25T16:58:26;3.92;;;2.75;;
10132;SDS011;5106;50.926;7.080;2022-08-25T17:00:52;6.68;;;3.20;;
10132;SDS011;5106;50.926;7.080;2022-08-25T17:03:17;4.40;;;3.15;;
10132;SDS011;5106;50.926;7.080;2022-08-25T17:05:43;4.07;;;2.80;;
10132;SDS011;5106;50.926;7.080;2022-08-25T17:08:09;3.25;;;2.70;;
10132;SDS011;5106;50.926;7.080;2022-08-25T17:10:53;3.22;;;2.92;;
10132;SDS011;5106;50.926;7.080;2022-08-25T17:13:26;2.88;;;2.60;;
10132;SDS011;5106;50.926;7.080;2022-08-25T17:15:53;3.38;;;3.08;;
10132;SDS011;5106;50.926;7.080;2022-08-25T17:18:19;3.85;;;2.80;;
10132;SDS011;5106;50.926;7.080;2022-08-25T17:20:45;3.33;;;2.30;;
10132;SDS011;5106;50.926;7.080;2022-08-25T17:23:12;5.18;;;2.58;;
10132;SDS011;5106;50.926;7.080;2022-08-25T17:25:38;4.85;;;2.92;;
10132;SDS011;5106;50.926;7.080;2022-08-25T17:28:05;4.13;;;2.70;;
10132;SDS011;5106;50.926;7.080;2022-08-25T17:30:31;4.22;;;2.80;;
10132;SDS011;5106;50.926;7.080;2022-08-25T17:32:57;3.35;;;2.83;;